Decoded Metar for CYLD (CHAPLEAU in ON, CANADA) (IATA:YLD) | Meteo·Mobile Aviation Weather
aviador You're here:

CYLD Decoded Metar

CHAPLEAU in ON, CANADA
Report Time2018-09-18 21:00:00
UTC Time2018-09-18 22:06:29
Flight Rules mvfr MVFR
Wind030° at 05 kt
W.Decomp.*RWY 05: 4.9 kt HW 1 kt LCW
RWY 10: 2.4 kt HW 4.4 kt LCW
W.Rank030° ranks 20
Current wind is below 030° avg. (7.1)
Visibility9999 m
Phenomena:N/A
Clouds:Broken 016 Hf
Expected CloudBase > 1,600 ft AGL from Temp-Dew spread
Ceiling1,600 ft
Temp10°C (ISA -2)
Dew Point06°C (76% RH)
AAT7.3°C
QNH1016 hPa
Density Alt1,250 ft
Elevation1,467 ft
Report Wrong Elevation
Raw Report
CYLD 182100Z 03005KT 010V070 15SM BKN016 10/06 A3000 RMK SC7
SLP179=

Extra information for CYLD:More info

Metar Taf Metar & Taf Last 4 Metars F.Rules Stats Wind Profile Meteogram Temp Stats Airport Information Weather charts Add Link Nearby VenuesMetar ALERT Operation Metar Decoded Social comments